Time;durP1;ratioP1;P1;durP2;ratioP2;P2;SDS_P1;SDS_P2;PMS_P1;PMS_P2;Temp;Humidity;BMP_temperature;BMP_pressure;BME280_temperature;BME280_humidity;BME280_pressure;Samples;Min_cycle;Max_cycle;Signal;HPM_P1;HPM_P2
2021/10/05 00:01:28;;;;;;;8.90;1.83;;;15.60;99.90;;;;;;5073799;28;20029;-72
2021/10/05 00:03:54;;;;;;;11.98;2.10;;;15.60;99.90;;;;;;5073489;28;20492;-73
2021/10/05 00:06:20;;;;;;;10.65;2.70;;;15.60;99.90;;;;;;5073647;28;20094;-73
2021/10/05 00:08:45;;;;;;;12.80;2.58;;;15.60;99.90;;;;;;5073988;28;20024;-73
2021/10/05 00:11:12;;;;;;;12.52;2.65;;;15.60;99.90;;;;;;5073236;28;20041;-73
2021/10/05 00:13:37;;;;;;;14.55;2.20;;;15.60;99.90;;;;;;5073638;28;20143;-73
2021/10/05 00:16:04;;;;;;;12.00;2.80;;;15.60;99.90;;;;;;5073353;28;20017;-73
2021/10/05 00:18:30;;;;;;;10.15;2.53;;;15.60;99.90;;;;;;5073879;28;20032;-72
2021/10/05 00:20:56;;;;;;;8.48;2.42;;;15.60;99.90;;;;;;5073212;28;20036;-72
2021/10/05 00:23:22;;;;;;;14.05;2.42;;;15.50;99.90;;;;;;5073221;28;20496;-73
2021/10/05 00:25:48;;;;;;;10.00;2.47;;;15.50;99.90;;;;;;5073103;28;20023;-73
2021/10/05 00:28:13;;;;;;;9.82;1.95;;;15.60;99.90;;;;;;5073224;28;20017;-72
2021/10/05 00:30:39;;;;;;;7.07;1.58;;;15.50;99.90;;;;;;5073037;28;20465;-74
2021/10/05 00:33:05;;;;;;;12.15;2.42;;;15.50;99.90;;;;;;5073711;28;20013;-72
2021/10/05 00:35:30;;;;;;;6.50;1.95;;;15.60;99.90;;;;;;5073153;28;20021;-73
2021/10/05 00:37:56;;;;;;;14.60;2.40;;;15.60;99.90;;;;;;5073100;28;20392;-74
2021/10/05 00:40:22;;;;;;;10.60;2.60;;;15.60;99.90;;;;;;5073042;28;20027;-72
2021/10/05 00:42:48;;;;;;;11.07;2.47;;;15.60;99.90;;;;;;5073572;28;20032;-73
2021/10/05 00:45:14;;;;;;;13.10;1.98;;;15.60;99.90;;;;;;5072988;28;20024;-73
2021/10/05 00:47:40;;;;;;;6.05;1.60;;;15.60;99.90;;;;;;5073463;28;20021;-71
2021/10/05 00:50:07;;;;;;;6.25;1.90;;;15.60;99.90;;;;;;5072995;28;20108;-72
2021/10/05 00:52:34;;;;;;;9.68;2.15;;;15.50;99.90;;;;;;5073222;28;20390;-72
2021/10/05 00:54:59;;;;;;;8.82;1.60;;;15.50;99.90;;;;;;5072910;28;20037;-71
2021/10/05 00:57:25;;;;;;;8.10;1.80;;;15.50;99.90;;;;;;5073179;28;20036;-73
2021/10/05 00:59:52;;;;;;;12.77;2.13;;;15.50;99.90;;;;;;5073124;28;20111;-74
2021/10/05 01:02:17;;;;;;;11.13;2.03;;;15.50;99.90;;;;;;5072858;28;20071;-72
2021/10/05 01:04:43;;;;;;;9.38;2.60;;;15.50;99.90;;;;;;5073110;28;20032;-73
2021/10/05 01:07:14;;;;;;;7.22;1.77;;;15.50;99.90;;;;;;5073022;28;20029;-72
2021/10/05 01:09:40;;;;;;;6.78;2.03;;;15.50;99.90;;;;;;5072882;28;20040;-74
2021/10/05 01:12:06;;;;;;;5.47;1.52;;;15.50;99.90;;;;;;5073337;28;20024;-72
2021/10/05 01:14:32;;;;;;;7.57;1.30;;;15.50;99.90;;;;;;5072701;28;20109;-72
2021/10/05 01:16:59;;;;;;;6.20;1.60;;;15.50;99.90;;;;;;5072736;28;20060;-71
2021/10/05 01:19:25;;;;;;;6.85;1.55;;;15.50;99.90;;;;;;5072736;28;20086;-73
2021/10/05 01:21:51;;;;;;;4.03;0.98;;;15.50;99.90;;;;;;5072554;28;20505;-74
2021/10/05 01:24:19;;;;;;;3.55;1.33;;;15.50;99.90;;;;;;5072657;28;20020;-73
2021/10/05 01:26:46;;;;;;;5.13;1.17;;;15.50;99.90;;;;;;5072614;28;20029;-74
2021/10/05 01:29:17;;;;;;;7.10;1.60;;;15.40;99.90;;;;;;5072633;28;20029;-73
2021/10/05 01:31:48;;;;;;;5.85;1.40;;;15.40;99.90;;;;;;5072924;28;20473;-73
2021/10/05 01:34:15;;;;;;;3.55;0.93;;;15.40;99.90;;;;;;5073104;28;20374;-72
2021/10/05 01:36:41;;;;;;;3.53;1.10;;;15.40;99.90;;;;;;5072531;28;20096;-73
2021/10/05 01:39:19;;;;;;;5.07;0.93;;;15.40;99.90;;;;;;5071251;28;20029;-72
2021/10/05 01:41:45;;;;;;;4.38;1.10;;;15.40;99.90;;;;;;5072991;28;20078;-72
2021/10/05 01:44:11;;;;;;;2.47;0.90;;;15.40;99.90;;;;;;5076019;28;20380;-73
2021/10/05 01:46:37;;;;;;;2.78;1.00;;;15.40;99.90;;;;;;5075890;28;20024;-73
2021/10/05 01:49:03;;;;;;;4.38;1.05;;;15.40;99.90;;;;;;5076215;28;20491;-72
2021/10/05 01:51:29;;;;;;;1.90;0.80;;;15.40;99.90;;;;;;5076170;28;20025;-71
2021/10/05 01:53:54;;;;;;;3.60;0.85;;;15.40;99.90;;;;;;5075930;28;20075;-73
2021/10/05 01:56:20;;;;;;;3.35;0.82;;;15.40;99.90;;;;;;5074516;28;20039;-72
2021/10/05 01:58:47;;;;;;;1.90;0.70;;;15.40;99.90;;;;;;5075776;28;20039;-74
2021/10/05 02:01:13;;;;;;;2.20;0.70;;;15.40;99.90;;;;;;5075757;28;20104;-73
2021/10/05 02:03:38;;;;;;;1.88;0.55;;;15.40;99.90;;;;;;5075976;28;20029;-72
2021/10/05 02:06:04;;;;;;;2.42;0.63;;;15.30;99.90;;;;;;5075595;28;20369;-73
2021/10/05 02:08:30;;;;;;;1.48;0.47;;;15.30;99.90;;;;;;5075600;28;20032;-73
2021/10/05 02:10:55;;;;;;;1.77;0.30;;;15.30;99.90;;;;;;5075478;28;20382;-74
2021/10/05 02:13:21;;;;;;;1.30;0.40;;;15.30;99.90;;;;;;5076061;28;20020;-73
2021/10/05 02:15:46;;;;;;;3.50;0.70;;;15.30;99.90;;;;;;5075753;28;20021;-74
2021/10/05 02:18:12;;;;;;;2.65;0.80;;;15.20;99.90;;;;;;5075440;28;20063;-72
2021/10/05 02:20:38;;;;;;;1.65;0.47;;;15.20;99.90;;;;;;5075344;28;20028;-74
2021/10/05 02:23:04;;;;;;;1.23;0.40;;;15.20;99.90;;;;;;5075339;28;20035;-73
2021/10/05 02:25:29;;;;;;;0.45;0.40;;;15.20;99.90;;;;;;5075285;28;20052;-73
2021/10/05 02:27:55;;;;;;;1.52;0.60;;;15.20;99.90;;;;;;5075172;28;20029;-72
2021/10/05 02:30:20;;;;;;;1.83;0.30;;;15.20;99.90;;;;;;5075203;28;20056;-75
2021/10/05 02:32:46;;;;;;;0.20;0.20;;;15.20;99.90;;;;;;5075171;28;20060;-72
2021/10/05 02:35:12;;;;;;;1.83;0.20;;;15.20;99.90;;;;;;5075133;28;20017;-73
2021/10/05 02:37:38;;;;;;;0.60;0.50;;;15.20;99.90;;;;;;5075080;28;20420;-74
2021/10/05 02:40:08;;;;;;;1.35;0.30;;;15.20;99.90;;;;;;5074976;28;20477;-74
2021/10/05 02:42:35;;;;;;;0.77;0.15;;;15.20;99.90;;;;;;5075265;28;20046;-74
2021/10/05 02:45:01;;;;;;;0.28;0.10;;;15.30;99.90;;;;;;5074923;28;20035;-73
2021/10/05 02:47:27;;;;;;;1.02;0.30;;;15.30;99.90;;;;;;5074764;28;20051;-72
2021/10/05 02:49:53;;;;;;;0.10;0.05;;;15.30;99.90;;;;;;5075087;28;20477;-72
2021/10/05 02:52:21;;;;;;;1.85;0.30;;;15.30;99.90;;;;;;5074742;28;20139;-72
2021/10/05 02:54:47;;;;;;;0.30;0.20;;;15.30;99.90;;;;;;5074315;28;20103;-73
2021/10/05 02:57:15;;;;;;;0.85;0.00;;;15.30;99.90;;;;;;5075225;28;20044;-71
2021/10/05 02:59:41;;;;;;;0.43;0.10;;;15.30;99.90;;;;;;5074610;28;20052;-72
2021/10/05 03:02:07;;;;;;;0.55;0.20;;;15.30;99.90;;;;;;5074840;28;20078;-73
2021/10/05 03:04:33;;;;;;;1.00;0.30;;;15.40;99.90;;;;;;5074775;28;20469;-74
2021/10/05 03:06:59;;;;;;;1.45;0.40;;;15.30;99.90;;;;;;5074388;28;20028;-73
2021/10/05 03:09:24;;;;;;;1.75;0.10;;;15.40;99.90;;;;;;5074765;28;20016;-71
2021/10/05 03:11:50;;;;;;;0.45;0.10;;;15.40;99.90;;;;;;5074324;28;20025;-72
2021/10/05 03:14:16;;;;;;;0.43;0.10;;;15.40;99.90;;;;;;5074336;28;20028;-72
2021/10/05 03:16:42;;;;;;;0.10;0.10;;;15.40;99.90;;;;;;5074487;28;20488;-74
2021/10/05 03:19:08;;;;;;;0.47;0.13;;;15.40;99.90;;;;;;5074204;28;20527;-74
2021/10/05 03:21:33;;;;;;;0.90;0.22;;;15.50;99.90;;;;;;5074359;28;20024;-72
2021/10/05 03:23:59;;;;;;;1.48;0.10;;;15.50;99.90;;;;;;5074638;28;20028;-75
2021/10/05 03:26:25;;;;;;;1.35;0.10;;;15.50;99.90;;;;;;5073988;28;20154;-73
2021/10/05 03:28:50;;;;;;;0.00;0.00;;;15.50;99.90;;;;;;5074322;28;20050;-74
2021/10/05 03:31:17;;;;;;;0.00;0.00;;;15.50;99.90;;;;;;5074313;28;20492;-73
2021/10/05 03:33:44;;;;;;;1.75;0.15;;;15.50;99.90;;;;;;5073933;28;20036;-74
2021/10/05 03:36:11;;;;;;;0.75;0.05;;;15.50;99.90;;;;;;5073890;28;20020;-74
2021/10/05 03:38:38;;;;;;;0.00;0.00;;;15.50;99.90;;;;;;5073894;28;20051;-72
2021/10/05 03:41:04;;;;;;;0.28;0.20;;;15.60;99.90;;;;;;5073794;28;20024;-72
2021/10/05 03:43:30;;;;;;;4.05;0.50;;;15.60;99.90;;;;;;5073776;28;20028;-73
2021/10/05 03:45:56;;;;;;;1.55;0.30;;;15.20;99.90;;;;;;5074246;28;20488;-73
2021/10/05 03:48:22;;;;;;;1.48;0.40;;;14.70;99.90;;;;;;5073717;28;20021;-73
2021/10/05 03:50:48;;;;;;;3.55;0.60;;;14.40;99.90;;;;;;5073995;28;20033;-71
2021/10/05 03:53:17;;;;;;;1.98;0.63;;;14.30;99.90;;;;;;5073893;28;20042;-72
2021/10/05 03:56:03;;;;;;;1.77;0.60;;;14.20;99.90;;;;;;5073535;28;20016;-73
2021/10/05 03:58:29;;;;;;;2.72;0.40;;;14.10;99.90;;;;;;5073566;28;20037;-72
2021/10/05 04:00:55;;;;;;;2.95;0.40;;;14.00;99.90;;;;;;5073820;28;20025;-71
2021/10/05 04:03:23;;;;;;;4.18;0.77;;;14.00;99.90;;;;;;5072237;28;20488;-72
2021/10/05 04:05:50;;;;;;;5.93;0.77;;;13.90;99.90;;;;;;5072839;28;20094;-74
2021/10/05 04:08:15;;;;;;;4.43;0.60;;;13.90;99.90;;;;;;5073645;28;20508;-72
2021/10/05 04:10:41;;;;;;;4.22;1.25;;;13.90;99.90;;;;;;5073216;28;20044;-72
2021/10/05 04:13:07;;;;;;;3.28;1.10;;;13.90;99.90;;;;;;5073402;28;20484;-71
2021/10/05 04:15:33;;;;;;;4.65;0.80;;;14.00;99.90;;;;;;5073375;28;20021;-71
2021/10/05 04:17:58;;;;;;;3.00;0.80;;;14.00;99.90;;;;;;5073591;28;20020;-70
2021/10/05 04:20:24;;;;;;;2.42;0.65;;;14.00;99.90;;;;;;5073248;28;20417;-72
2021/10/05 04:22:50;;;;;;;2.13;1.08;;;14.00;99.90;;;;;;5073244;28;20024;-73
2021/10/05 04:25:15;;;;;;;2.88;0.52;;;14.00;99.90;;;;;;5073245;28;20127;-74
2021/10/05 04:27:41;;;;;;;3.70;1.02;;;14.00;99.90;;;;;;5073123;28;20017;-71
2021/10/05 04:30:09;;;;;;;3.83;0.93;;;13.90;99.90;;;;;;5073200;28;20028;-72
2021/10/05 04:32:35;;;;;;;2.95;0.80;;;13.90;99.90;;;;;;5073182;28;20016;-72
2021/10/05 04:35:01;;;;;;;2.05;0.63;;;13.90;99.90;;;;;;5073109;28;20043;-72
2021/10/05 04:37:26;;;;;;;4.85;0.88;;;13.90;99.90;;;;;;5073648;28;20028;-71
2021/10/05 04:39:52;;;;;;;5.20;1.33;;;13.90;99.90;;;;;;5073115;28;20024;-72
2021/10/05 04:42:18;;;;;;;3.58;0.88;;;14.00;99.90;;;;;;5073342;28;20039;-72
2021/10/05 04:44:44;;;;;;;3.08;0.70;;;14.00;99.90;;;;;;5073057;28;20020;-71
2021/10/05 04:47:10;;;;;;;3.30;1.10;;;14.00;99.90;;;;;;5072925;28;20569;-73
2021/10/05 04:49:35;;;;;;;3.70;1.23;;;13.90;99.90;;;;;;5073002;28;20029;-72
2021/10/05 04:52:01;;;;;;;3.53;0.90;;;13.80;99.90;;;;;;5072937;28;20503;-73
2021/10/05 04:54:27;;;;;;;4.30;1.73;;;13.80;99.90;;;;;;5072930;28;20028;-73
2021/10/05 04:56:53;;;;;;;2.70;1.13;;;13.80;99.90;;;;;;5073208;28;20021;-71
2021/10/05 04:59:19;;;;;;;5.57;1.15;;;13.80;99.90;;;;;;5072902;28;20024;-71
2021/10/05 05:01:47;;;;;;;4.57;1.20;;;13.70;99.90;;;;;;5072898;28;20085;-73
2021/10/05 05:04:16;;;;;;;5.15;1.27;;;13.70;99.90;;;;;;5072847;28;20029;-73
2021/10/05 05:06:42;;;;;;;7.88;1.80;;;13.60;99.90;;;;;;5073046;28;20052;-71
2021/10/05 05:09:08;;;;;;;3.55;1.02;;;13.60;99.90;;;;;;5073078;28;20035;-71
2021/10/05 05:11:34;;;;;;;7.30;1.52;;;13.50;99.90;;;;;;5072396;28;20115;-71
2021/10/05 05:14:08;;;;;;;6.82;1.83;;;13.50;99.90;;;;;;5072767;28;20391;-71
2021/10/05 05:16:35;;;;;;;9.88;2.13;;;13.40;99.90;;;;;;5074539;28;20032;-72
2021/10/05 05:19:03;;;;;;;8.77;1.77;;;13.40;99.90;;;;;;5076512;28;20365;-73
2021/10/05 05:21:29;;;;;;;11.95;1.75;;;13.40;99.90;;;;;;5076411;28;20024;-72
2021/10/05 05:23:54;;;;;;;6.20;1.33;;;13.30;99.90;;;;;;5076429;28;20032;-72
2021/10/05 05:26:20;;;;;;;7.20;1.40;;;13.30;99.90;;;;;;5076583;28;20021;-71
2021/10/05 05:28:46;;;;;;;8.85;2.22;;;13.30;99.90;;;;;;5076583;28;20410;-71
2021/10/05 05:31:11;;;;;;;9.85;1.70;;;13.30;99.90;;;;;;5076270;28;20078;-71
2021/10/05 05:33:37;;;;;;;8.52;1.48;;;13.20;99.90;;;;;;5076238;28;20074;-71
2021/10/05 05:36:03;;;;;;;7.93;2.10;;;13.20;99.90;;;;;;5076447;28;20035;-72
2021/10/05 05:38:28;;;;;;;11.80;1.83;;;13.20;99.90;;;;;;5076734;28;20024;-71
2021/10/05 05:40:54;;;;;;;7.07;1.80;;;13.20;99.90;;;;;;5076102;28;20492;-71
2021/10/05 05:43:20;;;;;;;11.27;1.77;;;13.10;99.90;;;;;;5076373;28;20040;-72
2021/10/05 05:45:46;;;;;;;7.57;1.83;;;13.10;99.90;;;;;;5076024;28;20027;-72
2021/10/05 05:48:12;;;;;;;12.07;1.80;;;13.10;99.90;;;;;;5075917;28;20077;-73
2021/10/05 05:50:38;;;;;;;7.60;1.58;;;13.00;99.90;;;;;;5075947;28;20024;-71
2021/10/05 05:53:04;;;;;;;7.25;1.92;;;13.00;99.90;;;;;;5075889;28;20027;-72
2021/10/05 05:55:30;;;;;;;9.02;1.98;;;13.00;99.90;;;;;;5075818;28;20103;-74
2021/10/05 05:57:55;;;;;;;10.80;1.73;;;13.00;99.90;;;;;;5075833;28;20082;-70
2021/10/05 06:00:21;;;;;;;7.13;1.65;;;13.00;99.90;;;;;;5075784;28;20474;-72
2021/10/05 06:02:47;;;;;;;12.25;2.22;;;13.00;99.90;;;;;;5076029;28;20032;-72
2021/10/05 06:05:14;;;;;;;9.13;2.65;;;13.00;99.90;;;;;;5075957;28;20029;-72
2021/10/05 06:07:40;;;;;;;11.02;4.85;;;13.00;99.90;;;;;;5075543;28;20020;-72
2021/10/05 06:10:07;;;;;;;11.15;5.32;;;13.00;99.90;;;;;;5075354;28;20036;-72
2021/10/05 06:12:41;;;;;;;7.75;2.58;;;13.00;99.90;;;;;;5075838;28;20021;-73
2021/10/05 06:15:10;;;;;;;6.63;2.03;;;13.00;99.90;;;;;;5076104;28;20020;-72
2021/10/05 06:17:39;;;;;;;9.20;2.60;;;13.00;99.90;;;;;;5075447;28;20036;-73
2021/10/05 06:20:06;;;;;;;7.13;2.03;;;13.00;99.90;;;;;;5075576;28;20468;-75
2021/10/05 06:22:33;;;;;;;9.23;2.47;;;13.00;99.90;;;;;;5075285;28;20509;-76
2021/10/05 06:24:58;;;;;;;8.00;2.20;;;12.90;99.90;;;;;;5075578;28;20384;-73
2021/10/05 06:27:24;;;;;;;9.90;2.85;;;13.00;99.90;;;;;;5074811;28;20025;-72
2021/10/05 06:29:50;;;;;;;9.02;2.35;;;12.90;99.90;;;;;;5074919;28;20027;-73
2021/10/05 06:32:15;;;;;;;8.35;2.30;;;13.00;99.90;;;;;;5075475;28;20029;-72
2021/10/05 06:34:41;;;;;;;8.63;2.08;;;12.90;99.90;;;;;;5075130;28;20127;-71
2021/10/05 06:37:07;;;;;;;8.55;2.50;;;13.00;99.90;;;;;;5075086;28;20149;-72
2021/10/05 06:39:32;;;;;;;8.30;1.95;;;13.00;99.90;;;;;;5075039;28;20028;-72
2021/10/05 06:41:58;;;;;;;14.30;2.42;;;13.00;99.90;;;;;;5074967;28;20039;-71
2021/10/05 06:44:25;;;;;;;6.45;2.28;;;13.00;99.90;;;;;;5074962;28;20021;-74
2021/10/05 06:46:51;;;;;;;11.18;2.00;;;13.00;99.90;;;;;;5074796;28;20423;-72
2021/10/05 06:49:16;;;;;;;8.35;1.88;;;13.00;99.90;;;;;;5075113;28;20017;-74
2021/10/05 06:51:42;;;;;;;8.90;2.25;;;13.00;99.90;;;;;;5074794;28;20024;-71
2021/10/05 06:54:07;;;;;;;6.85;2.20;;;13.00;99.90;;;;;;5074777;28;20013;-72
2021/10/05 06:56:33;;;;;;;8.77;2.00;;;13.00;99.90;;;;;;5074869;28;20025;-72
2021/10/05 06:58:59;;;;;;;11.88;2.42;;;13.00;99.90;;;;;;5074596;28;20027;-74
2021/10/05 07:01:25;;;;;;;8.15;2.20;;;13.00;99.90;;;;;;5075109;28;20052;-74
2021/10/05 07:03:50;;;;;;;9.48;1.95;;;13.00;99.90;;;;;;5074530;28;20021;-71
2021/10/05 07:06:16;;;;;;;12.07;2.42;;;13.00;99.90;;;;;;5075572;28;20105;-73
2021/10/05 07:08:42;;;;;;;9.77;2.70;;;13.00;99.90;;;;;;5075301;28;20078;-74
2021/10/05 07:11:07;;;;;;;12.88;2.50;;;13.10;99.90;;;;;;5074121;28;20114;-75
2021/10/05 07:13:33;;;;;;;10.90;2.53;;;13.10;99.90;;;;;;5074313;28;20365;-73
2021/10/05 07:15:59;;;;;;;9.63;2.15;;;13.10;99.90;;;;;;5081605;28;20066;-76
2021/10/05 07:18:24;;;;;;;10.90;2.35;;;13.10;99.90;;;;;;5092543;28;20063;-77
2021/10/05 07:20:50;;;;;;;8.00;2.30;;;13.10;99.90;;;;;;5094268;28;20027;-74
2021/10/05 07:23:16;;;;;;;8.32;2.58;;;13.20;99.90;;;;;;5094501;28;20032;-73
2021/10/05 07:25:41;;;;;;;8.27;1.92;;;13.20;99.90;;;;;;5095082;28;20020;-77
2021/10/05 07:28:10;;;;;;;9.55;1.73;;;13.20;99.90;;;;;;5083979;28;20036;-76
2021/10/05 07:30:36;;;;;;;19.17;2.95;;;13.20;99.90;;;;;;5074115;28;20477;-75
2021/10/05 07:33:02;;;;;;;11.02;2.10;;;13.30;99.90;;;;;;5074502;28;20025;-78
2021/10/05 07:35:29;;;;;;;12.90;2.35;;;13.30;99.90;;;;;;5073982;28;20476;-76
2021/10/05 07:37:55;;;;;;;11.65;1.90;;;13.30;99.90;;;;;;5078485;28;20032;-78
2021/10/05 07:40:22;;;;;;;6.82;1.92;;;13.30;99.90;;;;;;5092446;28;20519;-74
2021/10/05 07:42:53;;;;;;;9.68;2.00;;;13.40;99.90;;;;;;5094060;28;20025;-78
2021/10/05 07:45:19;;;;;;;9.18;1.85;;;13.40;99.90;;;;;;5077823;28;20024;-76
2021/10/05 07:47:45;;;;;;;8.23;2.10;;;13.40;99.90;;;;;;5073666;28;20029;-76
2021/10/05 07:50:11;;;;;;;8.13;1.80;;;13.50;99.90;;;;;;5073905;28;20115;-78
2021/10/05 07:52:37;;;;;;;11.43;2.10;;;13.50;99.90;;;;;;5074459;28;20023;-72
2021/10/05 07:55:04;;;;;;;12.00;2.50;;;13.50;99.90;;;;;;5073733;28;20028;-74
2021/10/05 07:57:30;;;;;;;11.50;2.63;;;13.60;99.90;;;;;;5093807;28;20039;-76
2021/10/05 07:59:56;;;;;;;12.05;2.58;;;13.70;99.90;;;;;;5094184;28;20024;-76
2021/10/05 08:02:21;;;;;;;7.75;1.60;;;13.90;99.90;;;;;;5091769;28;20032;-77
2021/10/05 08:04:47;;;;;;;11.40;2.15;;;14.20;99.90;;;;;;5093747;28;20101;-77
2021/10/05 08:07:13;;;;;;;8.98;3.05;;;14.50;99.90;;;;;;5075490;28;20488;-75
2021/10/05 08:09:38;;;;;;;10.85;2.40;;;14.80;99.90;;;;;;5073539;28;20097;-75
2021/10/05 08:12:05;;;;;;;14.27;2.17;;;15.10;99.90;;;;;;5073673;28;20427;-77
2021/10/05 08:14:30;;;;;;;11.48;2.33;;;15.30;99.90;;;;;;5074184;28;20389;-76
2021/10/05 08:16:56;;;;;;;9.73;2.67;;;15.60;99.90;;;;;;5074247;28;20037;-77
2021/10/05 08:19:23;;;;;;;11.23;1.98;;;15.80;99.90;;;;;;5073582;28;20035;-75
2021/10/05 08:21:49;;;;;;;9.38;1.83;;;16.10;99.90;;;;;;5073317;28;20024;-76
2021/10/05 08:24:14;;;;;;;9.20;2.05;;;16.30;99.90;;;;;;5087065;28;20406;-77
2021/10/05 08:26:40;;;;;;;7.45;1.67;;;16.60;99.90;;;;;;5093594;28;20459;-72
2021/10/05 08:29:05;;;;;;;7.25;1.88;;;16.80;99.90;;;;;;5079867;28;20033;-72
2021/10/05 08:31:32;;;;;;;8.70;1.73;;;16.80;99.90;;;;;;5085873;28;20024;-72
2021/10/05 08:33:58;;;;;;;11.55;2.10;;;17.00;99.90;;;;;;5093562;28;20031;-71
2021/10/05 08:36:24;;;;;;;11.52;2.05;;;17.30;99.90;;;;;;5093875;28;20024;-74
2021/10/05 08:38:49;;;;;;;11.05;2.15;;;17.40;99.90;;;;;;5093587;28;20388;-73
2021/10/05 08:41:16;;;;;;;8.32;1.52;;;17.60;99.90;;;;;;5093764;28;20032;-73
2021/10/05 08:43:42;;;;;;;9.30;1.92;;;17.80;99.90;;;;;;5093251;28;20104;-73
2021/10/05 08:46:08;;;;;;;8.55;2.28;;;18.00;99.90;;;;;;5093128;28;20526;-72
2021/10/05 08:48:36;;;;;;;9.20;1.77;;;18.00;99.90;;;;;;5093159;28;20048;-72
2021/10/05 08:51:04;;;;;;;9.48;2.10;;;18.30;99.90;;;;;;5093920;28;20030;-71
2021/10/05 08:53:33;;;;;;;10.07;2.40;;;18.60;99.90;;;;;;5097308;28;20043;-72
2021/10/05 08:55:58;;;;;;;9.63;1.80;;;18.70;99.40;;;;;;5097292;28;20451;-73
2021/10/05 08:58:24;;;;;;;9.95;2.05;;;18.80;98.80;;;;;;5097241;28;20111;-71
2021/10/05 09:00:53;;;;;;;10.73;2.00;;;19.20;98.10;;;;;;5097451;28;20036;-73
2021/10/05 09:03:23;;;;;;;7.53;1.75;;;19.40;96.80;;;;;;5096949;28;20500;-72
2021/10/05 09:05:49;;;;;;;;;;;19.30;97.50;;;;;;5098099;28;20024;-73
2021/10/05 09:08:22;;;;;;;6.15;1.58;;;19.50;96.60;;;;;;5096980;28;19915;-73
2021/10/05 09:11:00;;;;;;;8.70;1.77;;;19.70;95.00;;;;;;5097000;28;20080;-72
2021/10/05 09:13:33;;;;;;;6.35;1.55;;;19.90;95.50;;;;;;5097650;28;20062;-72
2021/10/05 09:15:59;;;;;;;16.40;2.75;;;20.10;93.80;;;;;;5097621;28;20062;-74
2021/10/05 09:18:25;;;;;;;10.48;2.33;;;20.00;92.30;;;;;;5097097;28;20047;-74
2021/10/05 09:20:50;;;;;;;11.20;2.10;;;19.70;93.50;;;;;;5097029;28;20081;-74
2021/10/05 09:23:17;;;;;;;13.18;2.35;;;19.90;92.10;;;;;;5097332;28;20511;-71
2021/10/05 09:25:46;;;;;;;5.80;1.40;;;20.10;93.40;;;;;;5097529;28;20016;-73
2021/10/05 09:28:23;;;;;;;6.47;1.90;;;20.30;91.50;;;;;;5096582;28;20024;-72
2021/10/05 09:30:57;;;;;;;9.30;2.25;;;20.40;91.50;;;;;;5096791;28;20157;-72
2021/10/05 09:33:23;;;;;;;7.43;1.85;;;20.40;91.80;;;;;;5097114;28;20008;-72
2021/10/05 09:35:49;;;;;;;7.97;1.70;;;20.30;92.20;;;;;;5096542;28;20099;-71
2021/10/05 09:38:17;;;;;;;10.00;2.10;;;20.00;91.50;;;;;;5096965;28;20024;-75
2021/10/05 09:40:55;;;;;;;16.30;2.30;;;19.50;94.40;;;;;;5096705;28;20048;-73
2021/10/05 09:43:22;;;;;;;12.65;2.47;;;19.70;93.10;;;;;;5096827;28;20031;-72
2021/10/05 09:45:48;;;;;;;10.77;2.38;;;19.40;93.90;;;;;;5096486;28;20356;-76
2021/10/05 09:48:14;;;;;;;14.75;2.22;;;19.50;93.90;;;;;;5096508;28;20455;-80
2021/10/05 09:50:40;;;;;;;12.68;2.25;;;19.40;93.50;;;;;;5096524;28;20024;-74
2021/10/05 09:53:11;;;;;;;7.18;1.38;;;19.30;93.30;;;;;;5096915;28;20027;-72
2021/10/05 09:55:40;;;;;;;7.60;1.60;;;18.80;95.50;;;;;;5096550;28;20074;-75
2021/10/05 09:58:06;;;;;;;9.88;1.92;;;18.30;96.20;;;;;;5095987;28;20523;-73
2021/10/05 10:00:36;;;;;;;7.97;2.17;;;17.90;96.40;;;;;;5094130;28;20477;-75
2021/10/05 10:03:06;;;;;;;26.00;3.28;;;17.80;97.70;;;;;;5092771;28;20507;-74
2021/10/05 10:05:36;;;;;;;9.57;2.67;;;18.20;97.60;;;;;;5096245;28;20032;-74
2021/10/05 10:08:02;;;;;;;;;;;18.20;96.00;;;;;;5096597;28;20016;-74
2021/10/05 10:10:30;;;;;;;17.52;2.85;;;17.90;96.00;;;;;;5095965;28;19923;-74
2021/10/05 10:13:10;;;;;;;10.70;1.48;;;17.80;96.50;;;;;;5095792;28;20016;-74
2021/10/05 10:15:39;;;;;;;5.93;1.85;;;18.10;97.30;;;;;;5095926;28;20028;-72
2021/10/05 10:18:17;;;;;;;6.10;1.75;;;18.30;95.20;;;;;;5095732;28;20016;-71
2021/10/05 10:20:45;;;;;;;8.52;1.60;;;18.30;95.00;;;;;;5095927;28;20060;-72
2021/10/05 10:23:22;;;;;;;8.90;1.50;;;18.00;95.40;;;;;;5095902;28;20073;-71
2021/10/05 10:26:05;;;;;;;20.45;2.25;;;18.00;96.40;;;;;;5093593;28;20103;-72
2021/10/05 10:28:35;;;;;;;64.53;6.28;;;18.20;96.50;;;;;;5094912;28;20063;-72
2021/10/05 10:31:08;;;;;;;4.28;1.38;;;18.00;94.80;;;;;;5095078;28;20020;-71
2021/10/05 10:33:45;;;;;;;5.97;1.63;;;17.80;95.70;;;;;;5095120;28;20031;-73
2021/10/05 10:36:12;;;;;;;3.95;1.15;;;17.70;96.00;;;;;;5094994;28;20021;-73
2021/10/05 10:38:42;;;;;;;10.25;1.27;;;17.80;95.30;;;;;;5094923;28;20020;-73
2021/10/05 10:41:19;;;;;;;5.65;1.30;;;18.00;95.00;;;;;;5095577;28;20016;-73
2021/10/05 10:43:54;;;;;;;6.43;1.63;;;17.80;94.20;;;;;;5095524;28;20031;-71
2021/10/05 10:46:29;;;;;;;6.18;1.05;;;17.70;95.50;;;;;;5095077;28;20016;-73
2021/10/05 10:48:57;;;;;;;7.38;1.27;;;17.70;94.40;;;;;;5095087;28;20012;-71
2021/10/05 10:51:27;;;;;;;7.82;1.55;;;17.60;95.20;;;;;;5095068;28;20051;-72
2021/10/05 10:53:54;;;;;;;5.55;1.30;;;17.70;96.20;;;;;;5095263;28;20020;-71
2021/10/05 10:56:35;;;;;;;6.43;1.23;;;17.80;96.30;;;;;;5094972;28;20557;-73
2021/10/05 10:59:13;;;;;;;6.97;1.50;;;17.80;94.40;;;;;;5094924;28;20024;-73
2021/10/05 11:01:45;;;;;;;6.13;1.55;;;17.80;95.20;;;;;;5094928;28;20023;-71
2021/10/05 11:04:13;;;;;;;5.50;1.30;;;17.80;95.70;;;;;;5093229;28;20020;-76
2021/10/05 11:06:43;;;;;;;5.25;1.10;;;17.60;94.60;;;;;;5094679;28;20034;-71
2021/10/05 11:09:08;;;;;;;3.27;1.40;;;17.80;94.80;;;;;;5094854;28;20028;-72
2021/10/05 11:11:41;;;;;;;7.57;1.65;;;17.70;95.80;;;;;;5094296;28;20344;-71
2021/10/05 11:14:12;;;;;;;6.10;1.48;;;17.60;95.80;;;;;;5094805;28;20357;-72
2021/10/05 11:16:39;;;;;;;6.88;1.30;;;17.60;97.40;;;;;;5094907;28;20035;-73
2021/10/05 11:19:08;;;;;;;7.70;1.50;;;17.80;96.80;;;;;;5094817;28;20024;-73
2021/10/05 11:21:39;;;;;;;8.43;1.40;;;17.90;94.50;;;;;;5094733;28;20044;-73
2021/10/05 11:24:05;;;;;;;7.10;1.42;;;17.90;94.50;;;;;;5094762;28;20023;-72
2021/10/05 11:26:37;;;;;;;4.35;1.00;;;17.80;94.00;;;;;;5094327;28;20507;-72
2021/10/05 11:29:04;;;;;;;4.78;1.05;;;17.60;98.00;;;;;;5094427;28;20099;-70
2021/10/05 11:31:57;;;;;;;6.57;1.15;;;17.20;99.90;;;;;;5094281;28;20103;-75
2021/10/05 11:34:23;;;;;;;5.78;1.40;;;16.70;99.90;;;;;;5094567;28;20012;-70
2021/10/05 11:36:50;;;;;;;7.72;1.58;;;16.60;99.90;;;;;;5094243;28;20031;-71
2021/10/05 11:39:24;;;;;;;7.72;1.30;;;16.70;99.90;;;;;;5094420;28;20027;-71
2021/10/05 11:41:58;;;;;;;5.95;1.20;;;16.60;99.90;;;;;;5094149;28;20027;-71
2021/10/05 11:44:29;;;;;;;7.13;1.42;;;16.70;99.90;;;;;;5094662;28;20020;-74
2021/10/05 11:46:58;;;;;;;10.02;1.65;;;16.80;99.90;;;;;;5094290;28;20020;-70
2021/10/05 11:49:26;;;;;;;3.63;1.08;;;16.90;99.90;;;;;;5093979;28;20095;-75
2021/10/05 11:51:54;;;;;;;3.38;0.77;;;17.10;99.90;;;;;;5093911;28;20028;-73
2021/10/05 11:54:22;;;;;;;5.30;1.83;;;17.20;99.20;;;;;;5093824;28;20020;-73
2021/10/05 11:56:47;;;;;;;7.35;1.35;;;17.40;98.90;;;;;;5093831;28;20030;-72
2021/10/05 11:59:22;;;;;;;5.22;1.13;;;17.40;98.30;;;;;;5094082;28;20023;-73
2021/10/05 12:01:48;;;;;;;4.70;1.48;;;17.50;97.90;;;;;;5092521;28;20484;-73
2021/10/05 12:04:14;;;;;;;7.40;1.27;;;17.70;96.70;;;;;;5094062;28;20102;-71
2021/10/05 12:06:51;;;;;;;4.07;0.98;;;17.70;94.70;;;;;;5093940;28;20142;-71
2021/10/05 12:09:24;;;;;;;6.93;1.13;;;17.70;95.70;;;;;;5093998;28;20020;-73
2021/10/05 12:11:51;;;;;;;7.07;1.48;;;17.30;99.90;;;;;;5092155;28;20050;-73
2021/10/05 12:14:18;;;;;;;5.30;1.10;;;16.60;99.90;;;;;;5093597;28;20032;-74
2021/10/05 12:16:59;;;;;;;16.55;8.15;;;16.20;99.90;;;;;;5093560;28;20423;-71
2021/10/05 12:19:33;;;;;;;4.15;1.38;;;16.10;99.90;;;;;;5093766;28;20425;-72
2021/10/05 12:22:00;;;;;;;9.30;1.30;;;16.10;99.90;;;;;;5093450;28;20485;-71
2021/10/05 12:24:40;;;;;;;4.07;1.15;;;16.00;99.90;;;;;;5093461;28;20515;-71
2021/10/05 12:27:06;;;;;;;3.83;1.25;;;16.10;99.90;;;;;;5092824;28;20512;-72
2021/10/05 12:29:32;;;;;;;5.57;1.65;;;15.90;99.90;;;;;;5093346;28;20107;-73
2021/10/05 12:32:00;;;;;;;7.43;3.80;;;15.90;99.90;;;;;;5093678;28;20133;-73
2021/10/05 12:34:37;;;;;;;6.03;0.88;;;16.00;99.90;;;;;;5093372;28;20022;-72
2021/10/05 12:37:05;;;;;;;3.92;1.15;;;16.10;99.90;;;;;;5093858;28;20358;-73
2021/10/05 12:39:31;;;;;;;5.68;1.23;;;16.20;99.90;;;;;;5093336;28;20477;-70
2021/10/05 12:42:03;;;;;;;3.42;0.82;;;16.20;99.90;;;;;;5093348;28;20025;-70
2021/10/05 12:44:33;;;;;;;4.00;1.00;;;16.30;99.90;;;;;;5093830;28;20074;-71
2021/10/05 12:47:01;;;;;;;6.03;1.23;;;16.40;99.90;;;;;;5093295;28;20028;-71